Onion Creek, California Weather observations

Data are for observation ending at time listed.
 Day   Time    Ave.   Ave.  Ave.  Vector   Max.   Stn.    Total    Solar   Ave.   Snow 
  of    of     Air    Rel.  Wind   Wind    Wind   Baro.  Precip.   Rad.    Soil   Depth
Year   Day     Temp.  Hum.  Speed  Dir.    Gust   Pres.                    Temp.       
2016   (PST)    F      %     mph   deg.    mph     mb.     in.     W/m2     F      in. 
---------------------------------------------------------------------------------------  
 144   12:40   86.5    21    5.4   280     12.6   825.7   47.40     593    45.8   999.0
 144   12:50   87.1    21    4.4   282     15.0   825.8   47.40     729    46.1   999.0
 144   13:00   97.4    16    2.6   252      7.2   825.8   47.40     910    46.3   999.0
 144   13:10   96.9    15    3.1   245      9.6   825.8   47.40     812    46.6   999.0
 144   13:20   83.8    19    4.5   232     13.8   825.9   47.40     370    46.8   999.0
 144   13:30   74.3    24    2.1   247      7.4   825.9   47.44     271    47.0   999.0
 144   13:40   69.3    27    2.8   245      8.3   825.9   47.40     230    47.3   999.0
 144   13:50   65.1    31    2.5   255      8.5   825.9   47.40     179    47.5   999.0
 144   14:00   62.9    34    2.3   251      5.2   825.9   47.40     192    47.6   999.0
 144   14:10   63.7    34    2.3   265      8.3   825.9   47.40     219    47.7   999.0
 144   14:20   64.8    37    3.4   229     10.2   825.9   47.40     268    47.8   999.0
 144   14:30   63.5    44    2.9   278      6.5   825.9   47.40     217    47.9   999.0
 144   14:40   60.5    44    2.0   276      7.5   825.9   47.44     112    48.0   999.0
 144   14:50   57.1    47    1.1   277      6.4   825.9   47.44      84    48.0   999.0
 144   15:00   53.7    56    2.2   266      5.1   825.9   47.40      66    48.1   999.0
 144   15:10   51.1    65    1.9   257      5.0   825.8   47.40      64    48.1   999.0
 144   15:20   51.0    65    2.2   232      6.2   825.8   47.44      76    48.1   999.0
 144   15:30   52.1    63    1.8   270      5.3   825.7   47.40     112    48.1   999.0
 144   15:40   54.2    60    1.7   263      5.6   825.7   47.40     139    48.0   999.0
 144   15:50   54.8    55    2.6   243      7.3   825.7   47.40     132    48.0   999.0
 144   16:00   56.4    53    2.7   260      6.9   825.6   47.44     199    48.0   999.0
 144   16:10   57.5    51    2.2   271      6.0   825.6   47.40     146    47.9   999.0
 144   16:20   55.8    52    1.7   208      4.5   825.6   47.40     132    47.9   999.0
 144   16:30   54.7    55    1.3   225      5.8   825.6   47.40     139    47.8   999.0
 144   16:40   55.4    54    2.4   252      6.9   825.5   47.44     152    47.8   999.0
 144   16:50   54.4    58    1.8   261      6.6   825.5   47.40      96    47.8   999.0
 144   17:00   50.9    71    3.0   243      7.5   825.5   47.44      57    47.7   999.0
 144   17:10   48.1    86    1.7   244      4.7   825.5   47.44      83    47.6   999.0
 144   17:20   47.3    87    1.1   266      4.2   825.5   47.40      59    47.6   999.0
 144   17:30   45.9    88    0.8   157      3.8   825.5   47.44      39    47.6   999.0
 144   17:40   44.7    89    1.0   222      3.8   825.5   47.40      31    47.5   999.0
 144   17:50   44.3    92    0.3   242      1.7   825.4   47.44      26    47.5   999.0
 144   18:00   43.8    94    1.1    56      3.1   825.4   47.44      20    47.4   999.0
 144   18:10   42.8    95    1.1    76      3.0   825.4   47.44      15    47.4   999.0
 144   18:20   42.7    96    0.9    53      2.0   825.4   47.44      10    47.3   999.0
 144   18:30   42.5    96    0.8    27      2.0   825.4   47.44       5    47.2   999.0
 144   18:40   42.2    96    0.5    62      1.9   825.4   47.44       4    47.1   999.0
 144   18:50   42.1    96    0.4    20      1.7   825.4   47.44       4    47.0   999.0
 144   19:00   41.9    96    0.9    39      1.5   825.4   47.44       3    46.9   999.0
 144   19:10   41.7    96    1.0    19      2.1   825.4   47.44       2    46.8   999.0
 144   19:20   41.6    97    0.7   350      1.1   825.4   47.48       1    46.7   999.0
 144   19:30   41.4    97    0.3    30      0.9   825.4   47.44       0    46.6   999.0
 144   19:40   41.1    97    0.1    36      0.7   825.5   47.48       0    46.5   999.0
 144   19:50   41.1    97    0.0     0      0.0   825.5   47.44       0    46.5   999.0
 144   20:00   41.2    97    0.1    36      0.7   825.5   47.44       0    46.4   999.0
 144   20:10   40.9    97    0.0     0      0.0   825.6   47.44       0    46.3   999.0
 144   20:20   41.0    97    0.1     1      0.7   825.7   47.44       0    46.2   999.0
 144   20:30   40.9    97    0.3    18      0.9   825.7   47.48       0    46.1   999.0
 144   20:40   40.8    97    0.0    22      0.5   825.7   47.44       0    46.0   999.0
 144   20:50   40.8    97    0.4    59      1.5   825.8   47.48       0    45.9   999.0
 144   21:00   40.6    97    0.0    86      0.5   825.7   47.48       0    45.8   999.0
 144   21:10   40.5    97    0.3    39      0.9   825.7   47.48       0    45.7   999.0
 144   21:20   40.5    97    0.2    41      0.7   825.7   47.48       0    45.7   999.0
 144   21:30   40.5    97    0.3   358      0.9   825.7   47.48       0    45.6   999.0
 144   21:40   40.4    97    0.0     0      0.0   825.7   47.48       0    45.5   999.0
 144   21:50   40.4    97    0.0     0      0.0   825.6   47.48       0    45.4   999.0
 144   22:00   40.3    97    0.0     0      0.0   825.6   47.48       0    45.3   999.0
 144   22:10   40.3    97    0.0     0      0.0   825.5   47.48       0    45.3   999.0
 144   22:20   40.2    97    0.0    16      0.4   825.4   47.48       0    45.2   999.0
 144   22:30   40.0    97    0.4    12      1.2   825.3   47.48       0    45.1   999.0
 144   22:40   39.4    97    0.2    56      1.1   825.4   47.48       0    45.1   999.0
 144   22:50   39.2    97    0.1    36      0.6   825.4   47.48       0    45.0   999.0
 144   23:00   38.9    97    0.3    37      0.9   825.4   47.48       0    44.9   999.0
 144   23:10   38.7    97    0.1    37      0.8   825.4   47.48       0    44.8   999.0
 144   23:20   38.6    97    0.6    40      1.3   825.4   47.48       0    44.8   999.0
 144   23:30   38.7    97    0.4    38      1.5   825.4   47.48       0    44.7   999.0
 144   23:40   38.7    97    0.1    58      1.1   825.3   47.48       0    44.6   999.0
 144   23:50   38.8    97    0.1    51      0.8   825.3   47.48       0    44.5   999.0
 145    0:00   38.9    97    0.2     8      0.7   825.3   47.44       0    44.5   999.0
 145    0:10   38.9    97    0.0    33      0.8   825.1   47.48       0    44.4   999.0
 145    0:20   38.9    97    0.1    51      0.7   825.1   47.48       0    44.3   999.0
 145    0:30   39.0    97    0.0     0      0.0   825.1   47.44       0    44.3   999.0
 145    0:40   38.9    97    0.0     0      0.0   825.1   47.48       0    44.2   999.0
 145    0:50   39.0    97    0.1    31      0.8   825.0   47.48       0    44.2   999.0
 145    1:00   38.9    97    1.0    35      1.5   825.0   47.48       0    44.1   999.0
 145    1:10   38.9    97    0.5    34      1.2   824.9   47.48       0    44.0   999.0
 145    1:20   39.0    97    0.1    32      0.5   824.9   47.48       0    44.0   999.0
 145    1:30   39.0    97    0.5    32      1.5   824.8   47.48       0    43.9   999.0
 145    1:40   38.9    97    0.5    42      1.4   824.8   47.44       0    43.9   999.0
 145    1:50   38.7    97    0.4   139      1.5   824.7   47.48       0    43.8   999.0
 145    2:00   38.6    97    0.1   138      0.5   824.7   47.48       0    43.8   999.0
 145    2:10   38.5    97    0.4    70      1.0   824.7   47.48       0    43.7   999.0
 145    2:20   38.3    97    0.2    60      1.2   824.6   47.48       0    43.7   999.0
 145    2:30   38.6    97    0.4   141      1.5   824.6   47.48       0    43.6   999.0
 145    2:40   38.6    97    0.4   136      1.3   824.6   47.44       0    43.6   999.0
 145    2:50   38.3    97    0.1    48      1.2   824.6   47.48       0    43.5   999.0
 145    3:00   38.3    97    0.0    42      0.7   824.5   47.48       0    43.5   999.0
 145    3:10   38.3    97    0.3    34      1.0   824.5   47.44       0    43.4   999.0
 145    3:20   38.4    97    0.2    39      1.6   824.4   47.48       0    43.4   999.0
 145    3:30   38.4    97    0.1    57      0.9   824.4   47.48       0    43.4   999.0
 145    3:40   38.5    97    0.0    25      0.7   824.4   47.44       0    43.3   999.0
 145    3:50   38.5    97    0.6    35      1.5   824.4   47.48       0    43.3   999.0
 145    4:00   38.4    97    0.7    40      1.8   824.3   47.44       0    43.2   999.0
 145    4:10   38.4    97    0.4    32      1.4   824.3   47.48       0    43.2   999.0
 145    4:20   38.2    97    0.6    47      1.1   824.3   47.48       0    43.1   999.0
 145    4:30   38.2    97    0.1   256      0.6   824.3   47.44       0    43.1   999.0
 145    4:40   38.2    97    0.2    23      1.2   824.4   47.48       1    43.1   999.0
 145    4:50   38.1    97    0.4    64      1.7   824.4   47.48       2    43.0   999.0
 145    5:00   38.0    97    0.0     0      0.0   824.4   47.44       6    43.0   999.0
 145    5:10   38.2    97    0.0     0      0.0   824.4   47.44      10    42.9   999.0
 145    5:20   38.5    97    0.6    13      1.8   824.5   47.44      14    42.9   999.0
 145    5:30   38.9    97    0.8    53      1.5   824.5   47.48      21    42.9   999.0
 145    5:40   39.7    98    0.5   250      1.5   824.6   47.48      30    42.8   999.0
 145    5:50   40.3    98    0.4    21      1.0   824.8   47.44      26    42.8   999.0
 145    6:00   40.6    98    0.2   355      0.9   824.8   47.48      31    42.8   999.0
 145    6:10   41.4    98    0.0   356      0.3   824.9   47.44      46    42.7   999.0
 145    6:20   42.3    98    0.0     0      0.0   824.9   47.44      59    42.7   999.0
 145    6:30   43.4    98    0.0   256      0.2   825.0   47.48      75    42.7   999.0
 145    6:40   44.7    98    0.0     0      0.0   825.1   47.44      87    42.7   999.0
 145    6:50   45.7    98    0.2   239      1.5   825.2   47.48      98    42.7   999.0
 145    7:00   46.7    98    0.6   266      2.2   825.3   47.48     124    42.7   999.0
 145    7:10   48.8    98    0.7   245      2.0   825.3   47.48     173    42.7   999.0
 145    7:20   50.5    98    0.9   257      2.0   825.4   47.51     174    42.7   999.0
 145    7:30   50.9    98    1.3   245      2.6   825.5   47.51     169    42.8   999.0
 145    7:40   52.2    98    0.7   301      2.0   825.6   47.51     175    42.9   999.0
 145    7:50   54.0    98    0.2   107      1.0   825.7   47.48     213    42.9   999.0
 145    8:00   55.5    97    1.2   251      3.0   825.8   47.51     246    43.0   999.0
 145    8:10   56.2    96    0.9   175      2.5   825.8   47.51     212    43.2   999.0
 145    8:20   55.3    96    0.6   211      2.3   825.9   47.48     192    43.3   999.0
 145    8:30   55.5    95    0.8   265      2.5   826.0   47.48     185    43.4   999.0
 145    8:40   54.9    94    1.2   266      3.9   826.0   47.48     170    43.5   999.0
 145    8:50   52.4    93    1.0   127      3.7   826.1   47.48     121    43.7   999.0
 145    9:00   47.8    95    1.5    98      3.4   826.2   47.48      96    43.8   999.0
 145    9:10   47.4    96    1.0    42      2.0   826.3   47.51     106    43.9   999.0
 145    9:20   49.6    97    0.4    16      1.2   826.3   47.51     197    44.0   999.0
 145    9:30   56.4    98    0.5   328      1.5   826.3   47.51     392    44.0   999.0
 145    9:40   61.0    98    1.0   270      4.3   826.3   47.51     369    44.1   999.0
 145    9:50   59.6    98    1.5   211      4.4   826.4   47.51     346    44.2   999.0
 145   10:00   64.6    98    1.8   279      2.9   826.5   47.55     600    44.4   999.0
 145   10:10   72.2    98    1.4   302      3.7   826.6   47.51     657    44.5   999.0
 145   10:20   67.8    95    1.5    39      4.3   826.6   47.55     365    44.7   999.0
 145   10:30   63.4    92    1.5   349      4.8   826.7   47.51     278    44.9   999.0
 145   10:40   58.7    94    1.9   271      5.1   826.8   47.51     184    45.1   999.0
 145   10:50   54.7    94    2.0   267      5.7   826.9   47.51     114    45.4   999.0
 145   11:00   51.6    96    1.4   264      4.6   827.0   47.55      86    45.6   999.0
 145   11:10   49.3    96    0.5    96      1.8   827.0   47.51      73    45.7   999.0
 145   11:20   46.0    96    1.2    59      3.8   827.2   47.51      49    45.9   999.0
 145   11:30   38.2    92    1.3    64      4.6   827.5   47.63      49    46.0   999.0
 145   11:40   33.1    95    2.2    48      4.2   827.5   47.63      68    46.0   999.0
 145   11:50   36.7    97    0.7    28      2.0   827.6   47.66      77    46.0   999.0
 145   12:00   40.0    98    0.2     4      1.2   827.6   47.70      75    45.9   999.0
 145   12:10   42.4    98    0.8    54      2.0   827.6   47.70      78    45.8   999.0
 145   12:20   43.7    98    0.7    46      2.3   827.7   47.70      84    45.6   999.0
 145   12:30   44.8    98    1.0    59      2.1   827.7   47.77     112    45.6   999.0

Return to Onion Creek graphs page.


Western Regional Climate Center,wrcc@dri.edu